Time;durP1;ratioP1;P1;durP2;ratioP2;P2;SDS_P1;SDS_P2;PMS_P1;PMS_P2;Temp;Humidity;BMP_temperature;BMP_pressure;BME280_temperature;BME280_humidity;BME280_pressure;Samples;Min_cycle;Max_cycle;Signal;HPM_P1;HPM_P2
2021/12/08 00:00:41;;;;;;;7.85;2.53;;;2.80;99.90;;;;;;6221413;22;20020;-81
2021/12/08 00:03:09;;;;;;;;;;;2.70;99.90;;;;;;6247523;22;20046;-80
2021/12/08 00:05:36;;;;;;;8.50;3.30;;;2.80;99.90;;;;;;6221242;22;20327;-85
2021/12/08 00:08:04;;;;;;;11.25;3.90;;;2.80;99.90;;;;;;6243640;22;20108;-81
2021/12/08 00:13:03;;;;;;;8.15;2.85;;;2.80;99.90;;;;;;6245005;22;20015;-78
2021/12/08 00:15:31;;;;;;;9.73;3.30;;;2.70;99.90;;;;;;6272847;22;20104;-84
2021/12/08 00:17:58;;;;;;;10.55;3.63;;;2.70;99.90;;;;;;6219105;22;20344;-81
2021/12/08 00:20:27;;;;;;;10.77;3.92;;;2.70;99.90;;;;;;6217419;22;20022;-80
2021/12/08 00:22:53;;;;;;;10.65;3.85;;;2.70;99.90;;;;;;6219791;22;20384;-80
2021/12/08 00:25:19;;;;;;;10.52;3.40;;;2.70;99.90;;;;;;6240241;22;20077;-80
2021/12/08 00:27:44;;;;;;;11.52;4.18;;;3.50;99.90;;;;;;6220359;22;20015;-82
2021/12/08 00:30:10;;;;;;;8.43;3.03;;;2.80;99.90;;;;;;6242083;22;20012;-83
2021/12/08 00:53:54;;;;;;;11.45;4.30;;;2.80;99.90;;;;;;6270798;22;20786;-84
2021/12/08 00:56:20;;;;;;;15.38;4.82;;;2.80;99.90;;;;;;6245977;22;20019;-81
2021/12/08 00:58:45;;;;;;;13.70;4.72;;;2.90;99.90;;;;;;6219289;22;20450;-81
2021/12/08 01:01:12;;;;;;;11.82;4.40;;;2.90;99.90;;;;;;6245302;22;20042;-82
2021/12/08 01:03:38;;;;;;;9.18;4.70;;;2.80;99.90;;;;;;6244438;22;20094;-80
2021/12/08 01:06:04;;;;;;;15.23;4.63;;;2.90;99.90;;;;;;6219828;22;20354;-82
2021/12/08 01:08:32;;;;;;;12.27;4.25;;;3.60;99.90;;;;;;6245359;22;20007;-78
2021/12/08 01:11:07;;;;;;;13.05;4.90;;;2.90;99.90;;;;;;6219313;22;20011;-79
2021/12/08 01:13:33;;;;;;;13.82;4.95;;;3.00;99.90;;;;;;6218074;22;20024;-82
2021/12/08 01:15:59;;;;;;;14.30;5.70;;;3.00;99.90;;;;;;6219908;22;20022;-81
2021/12/08 01:18:27;;;;;;;5.95;3.42;;;2.90;99.90;;;;;;6219812;22;20011;-81
2021/12/08 01:20:56;;;;;;;11.43;4.32;;;3.00;99.90;;;;;;6220620;22;20016;-82
2021/12/08 01:23:22;;;;;;;12.20;4.60;;;3.00;99.90;;;;;;6244396;22;20083;-80
2021/12/08 01:25:48;;;;;;;11.10;4.72;;;3.00;99.90;;;;;;6242935;22;20015;-80
2021/12/08 01:28:18;;;;;;;13.13;4.47;;;3.10;99.90;;;;;;6218559;22;20074;-82
2021/12/08 01:30:43;;;;;;;11.68;4.45;;;3.10;99.90;;;;;;6241894;22;20011;-83
2021/12/08 01:33:09;;;;;;;9.85;3.95;;;3.00;99.90;;;;;;6244654;22;20034;-82
2021/12/08 01:35:35;;;;;;;10.57;3.75;;;3.10;99.90;;;;;;6218334;22;20023;-81
2021/12/08 01:38:02;;;;;;;10.68;3.95;;;3.20;99.90;;;;;;6243426;22;20545;-79
2021/12/08 01:40:28;;;;;;;10.75;4.07;;;3.20;99.90;;;;;;6218672;22;20090;-79
2021/12/08 01:42:57;;;;;;;12.10;4.30;;;3.20;99.90;;;;;;6246219;22;20062;-80
2021/12/08 01:46:00;;;;;;;11.15;3.90;;;3.30;99.90;;;;;;6245335;22;20061;-81
2021/12/08 01:48:19;;;;;;;;;;;3.30;99.90;;;;;;6240530;22;20103;-82
2021/12/08 01:50:51;;;;;;;9.43;3.55;;;3.40;99.90;;;;;;6248105;22;19911;-80
2021/12/08 01:53:18;;;;;;;8.52;4.00;;;3.40;99.90;;;;;;6221738;22;20024;-80
2021/12/08 01:55:45;;;;;;;11.88;4.35;;;3.40;99.90;;;;;;6219072;22;20126;-82
2021/12/08 01:58:13;;;;;;;15.02;4.40;;;3.40;99.90;;;;;;6248106;22;20401;-84
2021/12/08 02:00:49;;;;;;;8.27;4.20;;;3.40;99.90;;;;;;6221175;22;20114;-83
2021/12/08 02:03:17;;;;;;;12.63;4.82;;;3.40;99.90;;;;;;6221361;22;20094;-81
2021/12/08 02:05:42;;;;;;;12.05;3.88;;;3.90;99.90;;;;;;6247785;22;20051;-79
2021/12/08 02:08:09;;;;;;;11.65;4.10;;;3.40;99.90;;;;;;6271823;22;20019;-80
2021/12/08 02:10:37;;;;;;;9.38;4.72;;;4.10;99.90;;;;;;6220736;22;20084;-82
2021/12/08 02:13:04;;;;;;;11.93;4.25;;;3.40;99.90;;;;;;6220346;22;20102;-82
2021/12/08 02:15:31;;;;;;;11.68;4.70;;;3.40;99.90;;;;;;6222002;22;20447;-83
2021/12/08 02:17:57;;;;;;;8.65;4.00;;;3.40;99.90;;;;;;6246673;22;20020;-80
2021/12/08 02:20:26;;;;;;;10.10;3.80;;;3.50;99.90;;;;;;6246802;22;20030;-79
2021/12/08 02:22:52;;;;;;;10.50;4.53;;;3.60;99.90;;;;;;6247050;22;20019;-80
2021/12/08 02:25:21;;;;;;;6.68;3.63;;;3.50;99.90;;;;;;6221769;22;20312;-82
2021/12/08 02:27:48;;;;;;;16.65;4.82;;;3.40;99.90;;;;;;6246168;22;20047;-80
2021/12/08 02:30:41;;;;;;;8.68;4.47;;;3.50;99.90;;;;;;6219545;22;20118;-81
2021/12/08 02:47:13;;;;;;;9.73;4.25;;;3.50;99.90;;;;;;6247467;22;20090;-79
2021/12/08 02:49:39;;;;;;;14.45;4.57;;;3.50;99.90;;;;;;6222718;22;20019;-78
2021/12/08 02:52:08;;;;;;;9.93;4.93;;;3.50;99.90;;;;;;6220647;22;20015;-77
2021/12/08 02:54:43;;;;;;;9.20;4.03;;;3.50;99.90;;;;;;6245996;22;20359;-80
2021/12/08 02:57:10;;;;;;;10.15;4.40;;;3.50;99.90;;;;;;6246871;22;20016;-81
2021/12/08 02:59:38;;;;;;;10.63;4.50;;;3.50;99.90;;;;;;6246202;22;20067;-78
2021/12/08 03:02:03;;;;;;;10.40;4.55;;;3.50;99.90;;;;;;6220957;22;20012;-80
2021/12/08 03:04:29;;;;;;;8.77;4.30;;;3.50;99.90;;;;;;6221807;22;20019;-79
2021/12/08 03:06:55;;;;;;;7.95;4.32;;;3.50;99.90;;;;;;6220922;22;20016;-80
2021/12/08 03:09:21;;;;;;;11.90;4.60;;;3.50;99.90;;;;;;6245670;22;20011;-79
2021/12/08 03:11:49;;;;;;;13.88;4.72;;;3.50;99.90;;;;;;6245675;22;20019;-78
2021/12/08 03:14:16;;;;;;;6.00;3.97;;;3.60;99.90;;;;;;6246267;22;20007;-78
2021/12/08 03:16:48;;;;;;;8.73;4.20;;;3.50;99.90;;;;;;6220125;22;20317;-80
2021/12/08 03:19:14;;;;;;;9.40;4.68;;;3.60;99.90;;;;;;6221506;22;20016;-78
2021/12/08 03:21:40;;;;;;;9.02;4.15;;;3.60;99.90;;;;;;6247744;22;20331;-82
2021/12/08 03:27:01;;;;;;;9.15;4.32;;;3.60;99.90;;;;;;6246218;22;20016;-82
2021/12/08 03:29:46;;;;;;;15.50;4.93;;;4.20;99.90;;;;;;6247399;22;20012;-83
2021/12/08 03:32:16;;;;;;;13.13;5.70;;;3.60;99.90;;;;;;6245589;22;20012;-80
2021/12/08 03:34:51;;;;;;;12.23;5.88;;;4.60;99.90;;;;;;6246832;22;20110;-81
2021/12/08 03:37:18;;;;;;;;;;;3.70;99.90;;;;;;6247328;22;20015;-81
2021/12/08 03:39:44;;;;;;;12.05;5.68;;;4.60;99.90;;;;;;6246556;22;19915;-79
2021/12/08 03:42:10;;;;;;;8.93;5.50;;;4.00;99.90;;;;;;6247143;22;20447;-80
2021/12/08 03:44:37;;;;;;;11.63;5.75;;;3.70;99.90;;;;;;6247275;22;20011;-81
2021/12/08 03:47:12;;;;;;;11.82;6.28;;;4.20;99.90;;;;;;6222035;22;20026;-82
2021/12/08 03:49:39;;;;;;;7.82;5.88;;;3.70;99.90;;;;;;6222618;22;20080;-84
2021/12/08 03:52:05;;;;;;;13.18;6.90;;;3.80;99.90;;;;;;6247831;22;20053;-81
2021/12/08 03:54:34;;;;;;;9.68;6.45;;;3.80;99.90;;;;;;6246650;22;20043;-80
2021/12/08 03:57:00;;;;;;;11.73;6.88;;;3.80;99.90;;;;;;6247164;22;20015;-84
2021/12/08 03:59:25;;;;;;;10.35;6.53;;;4.10;99.90;;;;;;6221703;22;20020;-79
2021/12/08 04:01:51;;;;;;;17.05;7.20;;;3.80;99.90;;;;;;6247351;22;20065;-83
2021/12/08 04:04:17;;;;;;;10.93;7.00;;;3.80;99.90;;;;;;6248640;22;20018;-81
2021/12/08 04:06:49;;;;;;;16.77;6.82;;;4.60;99.90;;;;;;6221908;22;20094;-84
2021/12/08 04:09:28;;;;;;;15.63;7.32;;;3.90;99.90;;;;;;6221412;22;20366;-81
2021/12/08 04:11:55;;;;;;;13.77;7.35;;;3.90;99.90;;;;;;6277320;22;20018;-83
2021/12/08 04:14:23;;;;;;;17.67;7.80;;;3.90;99.90;;;;;;6227614;22;20008;-81
2021/12/08 04:17:06;;;;;;;16.77;8.05;;;3.90;99.90;;;;;;6224948;22;20011;-83
2021/12/08 04:19:33;;;;;;;11.80;8.10;;;3.90;99.90;;;;;;6250242;22;20019;-82
2021/12/08 04:22:04;;;;;;;14.68;8.60;;;3.90;99.90;;;;;;6279095;22;20474;-81
2021/12/08 04:24:52;;;;;;;14.60;8.63;;;3.90;99.90;;;;;;6279324;22;20371;-80
2021/12/08 04:27:22;;;;;;;16.17;8.57;;;3.90;99.90;;;;;;6228559;22;20008;-80
2021/12/08 04:29:48;;;;;;;15.32;9.68;;;4.30;99.90;;;;;;6245990;22;20015;-79
2021/12/08 04:32:16;;;;;;;17.85;9.30;;;3.90;99.90;;;;;;6246334;22;20016;-82
2021/12/08 04:34:46;;;;;;;15.57;9.50;;;4.00;99.90;;;;;;6246445;22;20019;-83
2021/12/08 04:37:22;;;;;;;16.92;9.10;;;4.00;99.90;;;;;;6220981;22;20040;-81
2021/12/08 04:40:13;;;;;;;18.08;8.98;;;4.00;99.90;;;;;;6195463;22;20012;-84
2021/12/08 04:45:20;;;;;;;11.45;7.55;;;4.20;99.90;;;;;;6247150;22;20321;-81
2021/12/08 04:48:11;;;;;;;20.27;9.52;;;4.20;99.90;;;;;;6220745;22;20011;-80
2021/12/08 05:04:40;;;;;;;19.05;10.93;;;4.20;99.90;;;;;;6246625;22;20081;-82
2021/12/08 05:09:51;;;;;;;12.88;10.02;;;4.20;99.90;;;;;;6273364;22;19974;-84
2021/12/08 05:12:27;;;;;;;18.05;10.52;;;4.20;99.90;;;;;;6247506;22;20348;-80
2021/12/08 05:15:12;;;;;;;19.63;9.85;;;4.20;99.90;;;;;;6219856;22;20396;-79
2021/12/08 05:18:03;;;;;;;13.50;9.60;;;4.30;99.90;;;;;;6246619;22;20007;-81
2021/12/08 05:20:44;;;;;;;15.02;9.93;;;4.30;99.90;;;;;;6242706;22;20352;-84
2021/12/08 05:23:23;;;;;;;18.27;10.45;;;4.40;99.90;;;;;;6244162;22;20012;-83
2021/12/08 05:25:51;;;;;;;17.20;10.57;;;4.40;99.90;;;;;;6245560;22;20083;-84
2021/12/08 05:28:22;;;;;;;21.08;10.48;;;4.40;99.90;;;;;;6271790;22;20035;-84
2021/12/08 05:31:10;;;;;;;15.60;10.90;;;4.50;99.90;;;;;;6219751;22;20439;-83
2021/12/08 05:33:38;;;;;;;18.35;11.55;;;4.40;99.90;;;;;;6273314;22;20019;-79
2021/12/08 05:36:04;;;;;;;17.73;10.82;;;4.50;99.90;;;;;;6220034;22;20019;-83
2021/12/08 05:38:31;;;;;;;20.42;12.57;;;4.50;99.90;;;;;;6244802;22;20416;-82
2021/12/08 05:41:19;;;;;;;17.67;10.82;;;4.50;99.90;;;;;;6221436;22;20028;-86
2021/12/08 05:43:46;;;;;;;16.40;10.07;;;4.60;99.90;;;;;;6244540;22;20008;-83
2021/12/08 05:46:13;;;;;;;18.20;10.63;;;5.00;99.90;;;;;;6245153;22;20377;-83
2021/12/08 05:48:39;;;;;;;16.30;10.05;;;4.90;99.90;;;;;;6246244;22;20007;-84
2021/12/08 05:51:13;;;;;;;16.33;10.30;;;4.70;99.90;;;;;;6246710;22;20016;-81
2021/12/08 05:53:43;;;;;;;16.98;9.48;;;4.70;99.90;;;;;;6245646;22;20439;-81
2021/12/08 05:56:10;;;;;;;15.77;9.65;;;4.80;99.90;;;;;;6246336;22;20034;-83
2021/12/08 05:58:37;;;;;;;13.85;8.95;;;5.60;99.90;;;;;;6246270;22;20016;-84
2021/12/08 06:01:18;;;;;;;13.85;9.25;;;5.30;99.90;;;;;;6247309;22;20440;-82
2021/12/08 06:03:47;;;;;;;13.50;9.52;;;4.80;99.90;;;;;;6246641;22;20367;-84
2021/12/08 06:06:14;;;;;;;14.32;9.60;;;4.90;99.90;;;;;;6221683;22;20054;-82
2021/12/08 06:08:40;;;;;;;14.50;9.15;;;5.50;99.90;;;;;;6273061;22;20091;-81
2021/12/08 06:11:08;;;;;;;16.13;9.15;;;4.90;99.90;;;;;;6273731;22;20047;-82
2021/12/08 06:13:35;;;;;;;14.35;8.98;;;4.90;99.90;;;;;;6245019;22;20015;-84
2021/12/08 06:16:04;;;;;;;14.45;8.95;;;4.90;99.90;;;;;;6246042;22;20019;-82
2021/12/08 06:18:36;;;;;;;16.52;9.02;;;5.10;99.90;;;;;;6219475;22;20623;-81
2021/12/08 06:21:04;;;;;;;18.73;9.50;;;5.50;99.90;;;;;;6272627;22;20011;-80
2021/12/08 06:23:33;;;;;;;16.50;8.90;;;5.40;99.90;;;;;;6220206;22;20104;-80
2021/12/08 06:26:00;;;;;;;21.77;9.10;;;5.60;99.90;;;;;;6221698;22;20077;-79
2021/12/08 06:28:25;;;;;;;17.73;9.57;;;5.30;99.90;;;;;;6246625;22;20079;-80
2021/12/08 06:30:52;;;;;;;15.55;8.93;;;5.70;99.90;;;;;;6274445;22;20035;-82
2021/12/08 06:33:20;;;;;;;15.80;9.15;;;5.00;99.90;;;;;;6246041;22;20023;-82
2021/12/08 06:35:51;;;;;;;16.70;9.00;;;5.30;99.90;;;;;;6248857;22;20016;-85
2021/12/08 06:38:21;;;;;;;17.00;7.80;;;5.30;99.90;;;;;;6246586;22;20019;-81
2021/12/08 06:40:59;;;;;;;15.45;8.43;;;5.00;99.90;;;;;;6245186;22;20008;-79
2021/12/08 06:43:30;;;;;;;13.18;8.35;;;5.00;99.90;;;;;;6222552;22;20065;-78
2021/12/08 06:45:58;;;;;;;16.75;7.90;;;5.00;99.90;;;;;;6247360;22;20008;-83
2021/12/08 06:48:31;;;;;;;11.90;7.38;;;5.00;99.90;;;;;;6247500;22;20440;-80
2021/12/08 06:51:06;;;;;;;14.63;7.93;;;5.00;99.90;;;;;;6248069;22;20015;-79
2021/12/08 06:53:32;;;;;;;13.85;7.25;;;5.00;99.90;;;;;;6221169;22;20348;-80
2021/12/08 06:56:39;;;;;;;16.50;7.40;;;5.00;99.90;;;;;;6248377;22;20023;-79
2021/12/08 06:59:12;;;;;;;24.00;7.45;;;5.00;99.90;;;;;;6246895;22;20020;-80
2021/12/08 07:01:56;;;;;;;11.73;6.97;;;5.00;99.90;;;;;;6223369;22;20012;-80
2021/12/08 07:04:51;;;;;;;13.98;7.57;;;4.90;99.90;;;;;;6221897;22;20008;-81
2021/12/08 07:07:19;;;;;;;12.77;5.82;;;5.30;99.90;;;;;;6275284;22;20011;-78
2021/12/08 07:09:57;;;;;;;10.73;6.75;;;4.90;99.90;;;;;;6219801;22;20091;-81
2021/12/08 07:12:31;;;;;;;12.98;7.00;;;4.90;99.90;;;;;;6221709;22;20052;-80
2021/12/08 07:15:06;;;;;;;13.25;7.20;;;4.80;99.90;;;;;;6220786;22;20012;-81
2021/12/08 07:17:35;;;;;;;14.32;6.50;;;4.80;99.90;;;;;;6220289;22;20098;-79
2021/12/08 07:20:14;;;;;;;14.85;6.93;;;4.70;99.90;;;;;;6245252;22;20492;-81
2021/12/08 07:22:41;;;;;;;15.38;6.50;;;4.70;99.90;;;;;;6218995;22;20008;-81
2021/12/08 07:25:07;;;;;;;13.68;6.55;;;4.70;99.90;;;;;;6224465;22;20012;-82
2021/12/08 07:27:35;;;;;;;14.50;7.28;;;4.70;99.90;;;;;;6219517;22;20042;-82
2021/12/08 07:30:15;;;;;;;11.93;6.20;;;4.70;99.90;;;;;;6243758;22;20016;-80
2021/12/08 07:32:41;;;;;;;17.73;6.00;;;4.60;99.90;;;;;;6244118;22;20023;-82
2021/12/08 07:35:17;;;;;;;17.48;6.53;;;4.60;99.90;;;;;;6217685;22;20102;-79
2021/12/08 07:37:46;;;;;;;18.58;6.40;;;4.60;99.90;;;;;;6216839;22;20477;-82
2021/12/08 07:40:26;;;;;;;14.02;6.32;;;4.50;99.90;;;;;;6218938;22;20016;-79
2021/12/08 07:42:59;;;;;;;15.02;6.32;;;4.60;99.90;;;;;;6245437;22;20088;-79
2021/12/08 07:45:42;;;;;;;13.73;5.60;;;4.50;99.90;;;;;;6246519;22;20087;-77
2021/12/08 07:48:20;;;;;;;14.20;5.97;;;4.50;99.90;;;;;;6244407;22;20505;-81
2021/12/08 07:50:54;;;;;;;12.13;5.65;;;4.50;99.90;;;;;;6217478;22;20019;-76
2021/12/08 07:53:22;;;;;;;8.88;5.50;;;4.70;99.90;;;;;;6240576;22;20030;-78
2021/12/08 07:55:51;;;;;;;10.27;4.90;;;4.50;99.90;;;;;;6217465;22;20042;-79
2021/12/08 07:58:19;;;;;;;10.55;4.40;;;4.50;99.90;;;;;;6242994;22;20018;-78
2021/12/08 08:01:07;;;;;;;12.00;4.35;;;4.50;99.90;;;;;;6217444;22;20016;-80
2021/12/08 08:03:36;;;;;;;9.18;4.38;;;4.50;99.90;;;;;;6220856;22;20023;-80
2021/12/08 08:06:07;;;;;;;10.50;3.88;;;4.50;99.90;;;;;;6218912;22;20007;-80
2021/12/08 08:08:35;;;;;;;7.63;3.35;;;4.50;99.90;;;;;;6217462;22;20077;-81
2021/12/08 08:11:21;;;;;;;8.80;3.28;;;4.50;99.90;;;;;;6219954;22;20051;-82
2021/12/08 08:13:48;;;;;;;9.00;3.20;;;5.00;99.90;;;;;;6247706;22;20019;-82
2021/12/08 08:16:18;;;;;;;13.93;2.95;;;4.60;99.90;;;;;;6247658;22;20019;-81
2021/12/08 08:18:52;;;;;;;11.73;3.75;;;4.60;99.90;;;;;;6219797;22;20011;-82
2021/12/08 08:21:22;;;;;;;10.25;3.00;;;4.70;99.90;;;;;;6219259;22;20097;-81
2021/12/08 08:23:48;;;;;;;16.77;2.95;;;4.60;99.90;;;;;;6220242;22;20452;-82
2021/12/08 08:26:15;;;;;;;9.30;3.20;;;4.60;99.90;;;;;;6220519;22;20061;-81
2021/12/08 08:28:44;;;;;;;12.35;3.67;;;4.60;99.90;;;;;;6245828;22;20012;-82
2021/12/08 08:31:21;;;;;;;8.65;3.35;;;4.70;99.90;;;;;;6220249;22;20015;-82
2021/12/08 08:33:48;;;;;;;11.13;3.13;;;4.70;99.90;;;;;;6245533;22;20015;-81
2021/12/08 08:36:19;;;;;;;9.77;3.80;;;4.70;99.90;;;;;;6245155;22;20019;-80
2021/12/08 08:39:18;;;;;;;8.45;3.40;;;4.70;99.90;;;;;;6244487;22;20011;-79
2021/12/08 08:41:51;;;;;;;12.02;3.65;;;4.70;99.90;;;;;;6095295;23;20021;-79
2021/12/08 08:44:28;;;;;;;8.90;3.00;;;4.80;99.90;;;;;;6093624;23;20021;-81
2021/12/08 08:47:00;;;;;;;9.05;3.22;;;4.80;99.90;;;;;;6095220;23;20013;-81
2021/12/08 08:49:31;;;;;;;7.00;2.80;;;4.90;99.90;;;;;;6118120;23;20367;-82
2021/12/08 08:52:00;;;;;;;10.40;3.60;;;4.80;99.90;;;;;;6092171;23;20014;-79
2021/12/08 08:54:31;;;;;;;12.23;2.90;;;5.00;99.90;;;;;;6119609;23;20018;-77
2021/12/08 08:57:05;;;;;;;8.32;2.67;;;4.90;99.90;;;;;;6068435;23;20010;-80
2021/12/08 08:59:40;;;;;;;8.65;2.78;;;4.90;99.90;;;;;;6068194;23;20363;-81
2021/12/08 09:02:09;;;;;;;9.57;2.60;;;5.00;99.90;;;;;;6091335;23;20045;-78
2021/12/08 09:04:42;;;;;;;14.45;3.38;;;5.10;99.90;;;;;;6068715;23;20049;-79
2021/12/08 09:07:13;;;;;;;9.23;2.90;;;5.10;99.90;;;;;;6091007;23;20014;-79
2021/12/08 09:09:46;;;;;;;11.73;3.17;;;5.10;99.90;;;;;;6093856;23;20017;-77
2021/12/08 09:12:25;;;;;;;11.80;2.45;;;5.10;99.90;;;;;;6094921;23;20132;-78
2021/12/08 09:15:07;;;;;;;11.38;2.58;;;5.20;99.90;;;;;;6092220;23;20013;-80
2021/12/08 09:17:40;;;;;;;8.90;2.65;;;5.10;99.90;;;;;;6124746;23;20082;-80
2021/12/08 09:20:35;;;;;;;13.25;2.38;;;5.20;99.90;;;;;;6187683;23;20103;-77
2021/12/08 09:23:20;;;;;;;13.63;2.97;;;5.30;99.90;;;;;;6211020;23;20095;-81
2021/12/08 09:25:57;;;;;;;9.75;2.50;;;5.20;99.90;;;;;;6212441;23;20058;-76
2021/12/08 09:28:29;;;;;;;12.05;2.85;;;5.40;99.90;;;;;;6210981;23;20078;-79
2021/12/08 09:31:17;;;;;;;11.65;2.70;;;5.20;99.90;;;;;;6187179;23;20019;-77
2021/12/08 09:33:51;;;;;;;11.40;2.58;;;5.20;99.90;;;;;;6212150;23;20103;-78
2021/12/08 09:36:24;;;;;;;10.40;2.50;;;5.80;99.90;;;;;;6209912;23;20024;-77
2021/12/08 09:38:54;;;;;;;6.97;2.13;;;5.30;99.90;;;;;;6211240;23;20090;-78
2021/12/08 09:41:42;;;;;;;8.88;2.17;;;5.30;99.90;;;;;;6212223;23;20095;-75
2021/12/08 09:44:13;;;;;;;13.57;2.50;;;5.30;99.90;;;;;;6187270;23;20118;-77
2021/12/08 09:46:42;;;;;;;9.57;2.35;;;5.30;99.90;;;;;;6211328;23;20096;-78
2021/12/08 09:49:09;;;;;;;8.20;2.08;;;5.30;99.90;;;;;;6209894;23;20441;-77
2021/12/08 09:51:35;;;;;;;12.50;2.70;;;5.30;99.90;;;;;;6211279;23;20023;-76
2021/12/08 09:54:01;;;;;;;10.02;2.30;;;5.20;99.90;;;;;;6232905;23;20437;-77
2021/12/08 09:56:29;;;;;;;9.80;2.10;;;5.20;99.90;;;;;;6241611;23;20078;-77
2021/12/08 09:58:55;;;;;;;10.20;2.20;;;5.30;99.90;;;;;;6237540;23;20055;-78
2021/12/08 10:01:23;;;;;;;9.27;2.20;;;5.30;99.90;;;;;;6236878;23;20020;-76
2021/12/08 10:03:51;;;;;;;13.43;2.65;;;5.40;99.90;;;;;;6211973;23;20051;-79
2021/12/08 10:06:20;;;;;;;14.15;2.30;;;5.40;99.90;;;;;;6238332;23;20103;-79
2021/12/08 10:08:48;;;;;;;12.77;2.53;;;5.50;99.90;;;;;;6238962;23;20019;-76
2021/12/08 10:11:16;;;;;;;15.27;2.90;;;5.50;99.90;;;;;;6240560;23;20019;-78
2021/12/08 10:13:44;;;;;;;8.52;2.05;;;5.60;99.90;;;;;;6213767;23;20016;-78
2021/12/08 10:16:12;;;;;;;17.10;2.80;;;5.70;99.90;;;;;;6213747;23;20071;-76
2021/12/08 10:18:43;;;;;;;15.82;3.17;;;5.70;99.90;;;;;;6215315;23;20020;-78
2021/12/08 10:21:09;;;;;;;9.88;2.80;;;5.70;99.90;;;;;;6238305;23;20016;-79
2021/12/08 10:23:38;;;;;;;13.02;2.72;;;5.80;99.90;;;;;;6237997;23;20051;-81
2021/12/08 10:26:05;;;;;;;12.32;2.55;;;5.70;99.90;;;;;;6216047;23;20110;-81
2021/12/08 10:28:40;;;;;;;12.70;2.65;;;5.80;99.90;;;;;;6213355;23;20433;-82
2021/12/08 10:31:16;;;;;;;9.15;2.20;;;5.80;99.90;;;;;;6241129;23;20012;-78
2021/12/08 10:37:04;;;;;;;12.95;2.58;;;6.00;99.90;;;;;;6242101;23;20022;-82
2021/12/08 10:39:54;;;;;;;11.65;2.60;;;5.90;99.90;;;;;;6235690;23;20032;-80
2021/12/08 10:42:31;;;;;;;11.48;2.38;;;6.00;99.90;;;;;;6241833;23;20016;-80
2021/12/08 10:47:48;;;;;;;11.05;2.22;;;6.00;99.90;;;;;;6242734;23;20016;-80
2021/12/08 10:55:53;;;;;;;13.13;2.90;;;6.10;99.90;;;;;;6240797;23;20288;-77
2021/12/08 10:58:25;;;;;;;12.38;2.40;;;6.20;99.90;;;;;;6240811;23;20016;-81
2021/12/08 11:00:57;;;;;;;9.25;2.13;;;6.10;99.90;;;;;;6239457;23;20012;-78
2021/12/08 11:03:23;;;;;;;17.67;2.30;;;6.10;99.90;;;;;;6214439;23;20042;-82
2021/12/08 11:05:58;;;;;;;11.23;2.55;;;6.10;99.90;;;;;;6218231;23;20012;-80
2021/12/08 11:08:29;;;;;;;16.75;2.75;;;6.40;99.90;;;;;;6214744;23;20016;-81
2021/12/08 11:10:59;;;;;;;12.57;2.55;;;6.30;99.90;;;;;;6242096;23;20473;-81
2021/12/08 11:13:32;;;;;;;12.27;2.28;;;6.10;99.90;;;;;;6241941;23;20035;-81
2021/12/08 11:16:04;;;;;;;9.10;2.28;;;6.10;99.90;;;;;;6242245;23;20016;-80
2021/12/08 11:18:30;;;;;;;15.15;2.58;;;6.20;99.90;;;;;;6241030;23;20012;-82
2021/12/08 11:21:19;;;;;;;11.65;2.28;;;6.30;99.90;;;;;;6245068;23;20019;-78
2021/12/08 11:23:49;;;;;;;12.38;2.40;;;6.30;99.90;;;;;;6241590;23;20012;-79
2021/12/08 11:26:25;;;;;;;12.18;2.33;;;6.40;99.90;;;;;;6215664;23;20051;-80
2021/12/08 11:29:02;;;;;;;9.02;2.03;;;6.40;99.90;;;;;;6241735;23;20008;-80
2021/12/08 11:31:39;;;;;;;8.52;2.38;;;6.40;99.90;;;;;;6242034;23;20035;-82
2021/12/08 11:34:27;;;;;;;14.02;2.35;;;6.50;99.90;;;;;;6242643;23;20012;-81
2021/12/08 11:37:03;;;;;;;12.32;2.20;;;6.50;99.90;;;;;;6239278;23;20012;-81
2021/12/08 11:39:29;;;;;;;11.40;2.42;;;6.50;99.90;;;;;;6190445;23;20018;-80
2021/12/08 11:42:12;;;;;;;14.00;2.45;;;6.50;99.90;;;;;;6241317;23;20035;-83
2021/12/08 11:44:46;;;;;;;9.90;2.28;;;6.50;99.90;;;;;;6218265;23;20012;-79
2021/12/08 11:47:15;;;;;;;10.07;2.45;;;6.50;99.90;;;;;;6242182;23;20027;-80
2021/12/08 11:49:47;;;;;;;8.90;2.22;;;6.60;99.90;;;;;;6215212;23;20020;-79
2021/12/08 11:52:20;;;;;;;7.90;2.05;;;6.60;99.90;;;;;;6218445;22;20020;-79
2021/12/08 11:54:52;;;;;;;9.82;2.00;;;6.60;99.90;;;;;;6247431;22;20031;-79
2021/12/08 11:57:25;;;;;;;13.65;2.38;;;6.60;99.90;;;;;;6246627;22;20436;-78
2021/12/08 12:00:24;;;;;;;11.98;2.45;;;6.60;99.90;;;;;;6222739;22;20016;-77
2021/12/08 12:03:01;;;;;;;11.50;2.40;;;6.70;99.90;;;;;;6245488;22;20008;-77
2021/12/08 12:05:47;;;;;;;9.02;1.88;;;6.70;99.90;;;;;;6245856;22;20061;-79
2021/12/08 12:08:24;;;;;;;13.45;2.55;;;6.50;99.90;;;;;;6220021;22;20019;-77
2021/12/08 12:10:53;;;;;;;5.82;1.80;;;6.50;99.90;;;;;;6244714;22;20011;-81
2021/12/08 12:13:19;;;;;;;7.15;2.08;;;6.50;99.90;;;;;;6219662;22;20022;-79
2021/12/08 12:15:49;;;;;;;10.68;2.28;;;6.40;99.90;;;;;;6221186;22;20012;-79
2021/12/08 12:18:18;;;;;;;13.73;2.60;;;6.40;99.90;;;;;;6246962;22;20439;-79
2021/12/08 12:20:58;;;;;;;9.50;2.30;;;6.40;99.90;;;;;;6245863;22;20384;-79
2021/12/08 12:23:57;;;;;;;10.13;2.03;;;6.40;99.90;;;;;;6219429;22;20201;-79
2021/12/08 12:26:22;;;;;;;11.27;2.30;;;6.40;99.90;;;;;;6245954;22;20027;-79
2021/12/08 12:29:11;;;;;;;10.18;2.45;;;6.40;99.90;;;;;;6221887;22;20007;-79
2021/12/08 12:32:04;;;;;;;8.77;2.88;;;6.40;99.90;;;;;;6245866;22;20019;-81
2021/12/08 12:34:32;;;;;;;12.65;2.53;;;6.40;99.90;;;;;;6220844;22;20157;-81
2021/12/08 12:37:02;;;;;;;12.65;2.40;;;6.40;99.90;;;;;;6239434;22;20047;-79
2021/12/08 12:39:30;;;;;;;10.75;2.47;;;6.40;99.90;;;;;;6216901;22;20020;-78
2021/12/08 12:42:05;;;;;;;14.82;2.90;;;6.30;99.90;;;;;;6218921;22;20351;-78
2021/12/08 12:44:31;;;;;;;;;;;6.40;99.90;;;;;;6220066;22;20054;-78
2021/12/08 12:47:11;;;;;;;12.70;2.50;;;6.30;99.90;;;;;;6244965;22;19933;-77
2021/12/08 12:49:39;;;;;;;12.48;2.55;;;6.40;99.90;;;;;;6245499;22;20022;-77
2021/12/08 12:52:08;;;;;;;9.10;2.25;;;6.30;99.90;;;;;;6244916;22;20042;-77
2021/12/08 12:54:35;;;;;;;9.70;2.50;;;6.50;99.90;;;;;;6220771;22;20027;-79
2021/12/08 12:57:06;;;;;;;12.07;2.83;;;6.30;99.90;;;;;;6247532;22;20328;-77
2021/12/08 12:59:53;;;;;;;11.30;2.40;;;6.30;99.90;;;;;;6221528;22;20414;-77
2021/12/08 13:02:30;;;;;;;10.80;3.22;;;6.30;99.90;;;;;;6246875;22;20620;-78
2021/12/08 13:05:01;;;;;;;15.80;3.58;;;6.30;99.90;;;;;;6222226;22;20064;-81
2021/12/08 13:07:29;;;;;;;15.32;3.03;;;6.30;99.90;;;;;;6249566;22;20008;-79
2021/12/08 13:09:56;;;;;;;11.30;2.53;;;6.30;99.90;;;;;;6246818;22;20439;-78
2021/12/08 13:12:41;;;;;;;10.70;2.70;;;6.40;99.90;;;;;;6222442;22;20023;-79
2021/12/08 13:15:20;;;;;;;12.20;2.50;;;6.40;99.90;;;;;;6247200;22;20073;-77
2021/12/08 13:18:08;;;;;;;6.90;2.63;;;6.30;99.90;;;;;;6245866;22;20012;-78
2021/12/08 13:20:37;;;;;;;14.38;3.15;;;6.30;99.90;;;;;;6249586;22;20086;-81
2021/12/08 13:23:06;;;;;;;11.00;2.35;;;6.30;99.90;;;;;;6219142;22;20119;-77
2021/12/08 13:25:58;;;;;;;10.90;2.03;;;6.30;99.90;;;;;;6221841;22;20012;-80
2021/12/08 13:31:18;;;;;;;8.82;2.10;;;6.30;99.90;;;;;;6272641;22;20047;-79
2021/12/08 13:34:14;;;;;;;8.90;2.35;;;6.30;99.90;;;;;;6245680;22;20122;-82
2021/12/08 13:36:45;;;;;;;6.93;2.05;;;6.70;99.90;;;;;;6067615;23;20085;-81
2021/12/08 13:39:29;;;;;;;13.38;2.63;;;6.20;99.90;;;;;;6069312;23;20017;-81
2021/12/08 13:42:10;;;;;;;13.68;2.90;;;6.20;99.90;;;;;;6094136;23;20025;-80
2021/12/08 13:44:48;;;;;;;13.52;2.63;;;6.30;99.90;;;;;;6066631;23;20434;-79
2021/12/08 13:47:32;;;;;;;10.15;2.92;;;6.20;99.90;;;;;;6094927;23;20034;-81
2021/12/08 13:50:14;;;;;;;7.82;2.75;;;6.40;99.90;;;;;;6120820;23;20025;-82
2021/12/08 13:52:57;;;;;;;12.65;3.50;;;6.30;99.90;;;;;;6087058;23;20064;-77
2021/12/08 13:55:26;;;;;;;11.05;3.00;;;6.30;99.90;;;;;;6089955;23;20026;-81
2021/12/08 13:58:14;;;;;;;13.23;3.15;;;6.20;99.90;;;;;;6090503;23;20050;-81
2021/12/08 14:00:54;;;;;;;8.05;2.47;;;6.50;99.90;;;;;;6043139;23;20022;-79
2021/12/08 14:03:39;;;;;;;11.35;2.63;;;6.30;99.90;;;;;;6066426;23;20124;-78
2021/12/08 14:06:07;;;;;;;13.07;2.70;;;6.00;99.90;;;;;;6092063;23;20057;-78
2021/12/08 14:08:50;;;;;;;14.20;2.22;;;5.90;99.90;;;;;;6065725;23;20015;-77
2021/12/08 14:11:23;;;;;;;8.23;2.30;;;5.90;99.90;;;;;;6068095;23;20343;-81
2021/12/08 14:13:56;;;;;;;9.43;2.40;;;5.80;99.90;;;;;;6170537;23;20070;-80
2021/12/08 14:16:57;;;;;;;10.18;2.75;;;5.80;99.90;;;;;;6191226;23;20039;-81
2021/12/08 14:19:22;;;;;;;10.85;2.30;;;5.80;99.90;;;;;;6126526;23;20018;-83
2021/12/08 14:21:48;;;;;;;9.70;2.50;;;5.70;99.90;;;;;;6149383;23;20095;-80
2021/12/08 14:24:23;;;;;;;10.07;2.72;;;5.70;99.90;;;;;;6149983;23;20104;-81
2021/12/08 14:26:50;;;;;;;13.75;2.65;;;5.60;99.90;;;;;;6151194;23;20397;-80
2021/12/08 14:29:24;;;;;;;11.45;2.80;;;5.60;99.90;;;;;;6149884;23;20036;-80
2021/12/08 14:31:58;;;;;;;15.47;2.90;;;5.50;99.90;;;;;;6150087;23;20069;-81